createdAt,value
2022-12-24T00:01:36.043Z,1.77
2022-12-24T00:04:02.656Z,2.10
2022-12-24T00:06:29.172Z,1.95
2022-12-24T00:08:55.720Z,2.33
2022-12-24T00:11:22.312Z,2.10
2022-12-24T00:13:49.248Z,2.10
2022-12-24T00:16:15.938Z,2.15
2022-12-24T00:18:46.344Z,2.10
2022-12-24T00:21:13.732Z,1.80
2022-12-24T00:23:40.682Z,2.15
2022-12-24T00:26:07.347Z,1.85
2022-12-24T00:28:33.935Z,2.00
2022-12-24T00:31:00.549Z,1.75
2022-12-24T00:33:27.140Z,2.13
2022-12-24T00:35:53.714Z,1.70
2022-12-24T00:38:20.406Z,1.70
2022-12-24T00:40:46.979Z,1.80
2022-12-24T00:43:13.550Z,1.80
2022-12-24T00:45:40.081Z,1.95
2022-12-24T00:48:06.647Z,1.98
2022-12-24T00:50:33.275Z,1.35
2022-12-24T00:52:59.838Z,1.73
2022-12-24T00:55:26.441Z,1.70
2022-12-24T00:57:53.011Z,1.70
2022-12-24T01:00:19.985Z,1.70
2022-12-24T01:02:46.727Z,1.90
2022-12-24T01:05:13.443Z,1.30
2022-12-24T01:07:44.615Z,1.55
2022-12-24T01:10:13.371Z,1.77
2022-12-24T01:12:40.039Z,1.42
2022-12-24T01:15:07.418Z,1.65
2022-12-24T01:17:34.890Z,1.58
2022-12-24T01:20:02.020Z,1.60
2022-12-24T01:22:28.545Z,1.70
2022-12-24T01:24:55.226Z,1.60
2022-12-24T01:27:21.751Z,1.50
2022-12-24T01:29:48.310Z,1.65
2022-12-24T01:32:15.031Z,1.35
2022-12-24T01:34:41.618Z,1.40
2022-12-24T01:37:08.138Z,1.48
2022-12-24T01:39:34.843Z,1.60
2022-12-24T01:42:19.891Z,1.60
2022-12-24T01:44:49.283Z,1.50
2022-12-24T01:47:28.160Z,1.38
2022-12-24T01:50:00.347Z,1.27
2022-12-24T01:52:29.731Z,1.50
2022-12-24T01:55:13.802Z,1.70
2022-12-24T01:57:44.226Z,1.40
2022-12-24T02:00:13.270Z,1.27
2022-12-24T02:02:42.173Z,1.38
2022-12-24T02:05:14.871Z,1.40
2022-12-24T02:07:42.331Z,1.23
2022-12-24T02:10:11.549Z,1.40
2022-12-24T02:12:39.247Z,1.30
2022-12-24T02:15:07.482Z,1.17
2022-12-24T02:17:43.421Z,1.45
2022-12-24T02:20:48.091Z,1.30
2022-12-24T02:23:42.671Z,1.40
2022-12-24T02:26:14.991Z,1.38
2022-12-24T02:29:06.173Z,1.25
2022-12-24T02:31:50.322Z,1.25
2022-12-24T02:34:28.330Z,1.42
2022-12-24T02:37:06.474Z,1.30
2022-12-24T02:39:43.839Z,1.20
2022-12-24T02:42:12.263Z,1.30
2022-12-24T02:44:46.205Z,1.38
2022-12-24T02:47:13.306Z,1.10
2022-12-24T02:49:43.683Z,1.30
2022-12-24T02:52:33.698Z,1.10
2022-12-24T02:55:21.177Z,1.30
2022-12-24T02:58:07.568Z,1.40
2022-12-24T03:01:16.601Z,1.15
2022-12-24T03:04:04.481Z,1.20
2022-12-24T03:06:43.597Z,1.10
2022-12-24T03:09:34.392Z,1.30
2022-12-24T03:12:13.238Z,1.27
2022-12-24T03:14:40.867Z,1.23
2022-12-24T03:17:08.386Z,1.10
2022-12-24T03:19:35.287Z,1.17
2022-12-24T03:22:04.705Z,1.20
2022-12-24T03:24:31.224Z,1.10
2022-12-24T03:26:59.544Z,1.20
2022-12-24T03:29:26.098Z,1.08
2022-12-24T03:31:59.892Z,1.10
2022-12-24T03:34:26.610Z,1.10
2022-12-24T03:36:53.330Z,0.90
2022-12-24T03:39:19.886Z,1.30
2022-12-24T03:41:46.405Z,1.15
2022-12-24T03:44:12.958Z,0.77
2022-12-24T03:46:39.757Z,1.20
2022-12-24T03:49:06.338Z,1.00
2022-12-24T03:51:33.376Z,1.23
2022-12-24T03:54:00.110Z,1.10
2022-12-24T03:56:26.723Z,1.15
2022-12-24T03:58:53.601Z,1.02
2022-12-24T04:01:20.410Z,1.25
2022-12-24T04:03:47.051Z,1.20
2022-12-24T04:06:15.978Z,1.10
2022-12-24T04:08:42.573Z,1.20
2022-12-24T04:11:12.352Z,1.08
2022-12-24T04:13:38.971Z,1.30
2022-12-24T04:16:11.470Z,1.15
2022-12-24T04:18:38.624Z,0.90
2022-12-24T04:21:05.932Z,1.10
2022-12-24T04:23:33.833Z,1.17
2022-12-24T04:26:05.939Z,0.95
2022-12-24T04:28:33.140Z,0.88
2022-12-24T04:31:00.854Z,1.13
2022-12-24T04:33:27.437Z,1.00
2022-12-24T04:35:54.128Z,0.90
2022-12-24T04:38:20.840Z,0.95
2022-12-24T04:40:47.405Z,0.80
2022-12-24T04:43:14.354Z,1.15
2022-12-24T04:45:40.911Z,1.20
2022-12-24T04:48:07.475Z,0.90
2022-12-24T04:50:34.018Z,0.85
2022-12-24T04:53:00.545Z,0.80
2022-12-24T04:55:27.076Z,0.75
2022-12-24T04:57:53.933Z,0.90
2022-12-24T05:00:20.638Z,0.88
2022-12-24T05:02:47.312Z,0.75
2022-12-24T05:05:13.959Z,0.90
2022-12-24T05:07:40.492Z,0.93
2022-12-24T05:10:07.645Z,0.98
2022-12-24T05:12:34.166Z,1.00
2022-12-24T05:15:00.760Z,0.90
2022-12-24T05:17:27.309Z,1.10
2022-12-24T05:19:53.830Z,1.00
2022-12-24T05:22:38.750Z,1.02
2022-12-24T05:25:24.029Z,1.08
2022-12-24T05:27:51.476Z,1.00
2022-12-24T05:30:18.248Z,0.88
2022-12-24T05:32:44.997Z,0.85
2022-12-24T05:35:11.561Z,0.90
2022-12-24T05:37:38.106Z,0.90
2022-12-24T05:40:05.139Z,0.90
2022-12-24T05:42:31.769Z,0.90
2022-12-24T05:44:58.409Z,0.80
2022-12-24T05:47:24.981Z,0.93
2022-12-24T05:49:51.510Z,1.00
2022-12-24T05:52:18.055Z,0.75
2022-12-24T05:54:44.624Z,1.00
2022-12-24T05:57:11.191Z,1.05
2022-12-24T05:59:37.711Z,1.00
2022-12-24T06:02:04.322Z,1.00
2022-12-24T06:04:30.948Z,1.00
2022-12-24T06:06:57.589Z,1.25
2022-12-24T06:09:24.122Z,0.90
2022-12-24T06:11:50.685Z,0.90
2022-12-24T06:14:17.221Z,1.00
2022-12-24T06:16:43.750Z,0.80
2022-12-24T06:19:10.327Z,1.05
2022-12-24T06:21:36.872Z,0.82
2022-12-24T06:24:03.568Z,1.10
2022-12-24T06:26:30.114Z,1.08
2022-12-24T06:28:56.639Z,1.00
2022-12-24T06:31:23.502Z,0.88
2022-12-24T06:33:51.053Z,1.75
2022-12-24T06:36:22.943Z,1.20
2022-12-24T06:38:50.093Z,1.20
2022-12-24T06:41:17.502Z,0.90
2022-12-24T06:43:48.213Z,1.38
2022-12-24T06:46:15.561Z,1.38
2022-12-24T06:48:43.805Z,1.65
2022-12-24T06:51:10.474Z,1.00
2022-12-24T06:53:37.001Z,1.00
2022-12-24T06:56:03.470Z,1.30
2022-12-24T06:58:30.420Z,1.60
2022-12-24T07:00:56.991Z,1.40
2022-12-24T07:03:23.591Z,1.50
2022-12-24T07:05:50.155Z,1.65
2022-12-24T07:08:16.693Z,1.55
2022-12-24T07:10:46.475Z,1.15
2022-12-24T07:13:16.077Z,1.67
2022-12-24T07:15:42.797Z,1.85
2022-12-24T07:18:09.440Z,1.30
2022-12-24T07:20:35.988Z,1.50
2022-12-24T07:23:02.650Z,1.60
2022-12-24T07:25:29.210Z,1.60
2022-12-24T07:27:55.742Z,1.30
2022-12-24T07:30:22.282Z,1.10
2022-12-24T07:32:48.828Z,1.40
2022-12-24T07:35:15.364Z,1.60
2022-12-24T07:37:41.925Z,1.42
2022-12-24T07:40:11.066Z,1.40
2022-12-24T07:42:37.585Z,1.35
2022-12-24T07:45:04.967Z,1.38
2022-12-24T07:47:31.506Z,1.63
2022-12-24T07:49:58.027Z,1.30
2022-12-24T07:52:24.557Z,1.33
2022-12-24T07:54:51.165Z,1.70
2022-12-24T07:57:17.907Z,1.55
2022-12-24T07:59:44.457Z,1.75
2022-12-24T08:02:17.897Z,1.50
2022-12-24T08:04:45.091Z,1.60
2022-12-24T08:07:11.688Z,1.20
2022-12-24T08:09:38.528Z,1.15
2022-12-24T08:12:05.277Z,1.20
2022-12-24T08:14:32.037Z,1.40
2022-12-24T08:16:58.769Z,1.60
2022-12-24T08:19:25.345Z,1.40
2022-12-24T08:21:51.899Z,1.13
2022-12-24T08:24:18.447Z,1.83
2022-12-24T08:26:45.005Z,1.48
2022-12-24T08:29:11.941Z,1.85
2022-12-24T08:31:38.659Z,1.65
2022-12-24T08:34:07.197Z,1.25
2022-12-24T08:36:34.567Z,1.40
2022-12-24T08:39:03.643Z,1.88
2022-12-24T08:41:33.197Z,2.00
2022-12-24T08:43:59.733Z,1.80
2022-12-24T08:46:26.605Z,2.38
2022-12-24T08:48:53.310Z,1.83
2022-12-24T08:51:19.931Z,1.80
2022-12-24T08:53:46.827Z,2.25
2022-12-24T08:56:13.601Z,2.70
2022-12-24T08:58:40.432Z,3.58
2022-12-24T09:01:14.861Z,2.88
2022-12-24T09:03:41.627Z,2.88
2022-12-24T09:06:09.110Z,2.72
2022-12-24T09:08:36.117Z,3.15
2022-12-24T09:11:07.345Z,2.85
2022-12-24T09:13:34.188Z,2.97
2022-12-24T09:16:00.798Z,2.60
2022-12-24T09:18:27.736Z,2.63
2022-12-24T09:21:11.703Z,2.50
2022-12-24T09:23:41.991Z,2.58
2022-12-24T09:26:20.377Z,2.65
2022-12-24T09:28:47.310Z,2.42
2022-12-24T09:31:14.414Z,2.58
2022-12-24T09:33:41.889Z,2.60
2022-12-24T09:36:09.143Z,2.00
2022-12-24T09:38:36.498Z,2.53
2022-12-24T09:41:12.163Z,2.97
2022-12-24T09:43:39.262Z,2.63
2022-12-24T09:46:29.066Z,2.72
2022-12-24T09:48:58.054Z,2.50
2022-12-24T09:51:43.181Z,2.20
2022-12-24T09:54:31.412Z,2.80
2022-12-24T09:57:01.694Z,2.30
2022-12-24T09:59:54.470Z,2.50
2022-12-24T10:02:21.170Z,2.75
2022-12-24T10:04:48.632Z,2.30
2022-12-24T10:07:21.081Z,2.30
2022-12-24T10:10:04.262Z,2.25
2022-12-24T10:12:33.218Z,1.80
2022-12-24T10:15:26.366Z,2.55
2022-12-24T10:18:13.879Z,2.60
2022-12-24T10:20:46.033Z,2.25
2022-12-24T10:23:33.784Z,2.00
2022-12-24T10:26:18.798Z,2.20
2022-12-24T10:29:01.948Z,1.88
2022-12-24T10:31:40.376Z,2.42
2022-12-24T10:34:14.073Z,2.38
2022-12-24T10:36:40.614Z,2.70
2022-12-24T10:39:16.613Z,2.33
2022-12-24T10:41:43.161Z,2.50
2022-12-24T10:44:17.060Z,2.42
2022-12-24T10:46:44.376Z,2.75
2022-12-24T10:49:29.392Z,2.30
2022-12-24T10:51:58.720Z,2.42
2022-12-24T10:54:28.167Z,2.60
2022-12-24T10:57:00.010Z,3.05
2022-12-24T10:59:34.553Z,2.85
2022-12-24T11:02:01.976Z,3.30
2022-12-24T11:04:31.533Z,3.58
2022-12-24T11:07:04.100Z,3.50
2022-12-24T11:09:36.214Z,3.00
2022-12-24T11:12:08.946Z,3.17
2022-12-24T11:17:04.521Z,3.50
2022-12-24T11:19:38.754Z,3.00
2022-12-24T11:22:17.910Z,3.10
2022-12-24T11:24:49.875Z,3.22
2022-12-24T11:27:44.218Z,3.30
2022-12-24T11:30:16.694Z,3.30
2022-12-24T11:32:45.335Z,2.97
2022-12-24T11:35:23.229Z,3.03
2022-12-24T11:38:10.141Z,3.15
2022-12-24T11:40:55.356Z,3.15
2022-12-24T11:43:22.133Z,3.03
2022-12-24T11:45:51.015Z,3.00
2022-12-24T11:48:32.012Z,3.28
2022-12-24T11:51:01.094Z,3.20
2022-12-24T11:53:37.537Z,3.25
2022-12-24T11:56:10.705Z,3.25
2022-12-24T11:58:45.172Z,3.38
2022-12-24T12:01:35.255Z,2.90
2022-12-24T12:04:05.665Z,2.90
2022-12-24T12:06:41.148Z,2.50
2022-12-24T12:09:13.042Z,3.13
2022-12-24T12:11:40.938Z,3.45
2022-12-24T12:14:19.257Z,3.15
2022-12-24T12:17:03.707Z,3.13
2022-12-24T12:19:34.951Z,2.75
2022-12-24T12:22:03.536Z,3.83
2022-12-24T12:24:36.451Z,2.83
2022-12-24T12:27:17.670Z,3.50
2022-12-24T12:29:49.299Z,3.20
2022-12-24T12:32:26.914Z,3.30
2022-12-24T12:35:03.419Z,3.00
2022-12-24T12:37:36.715Z,3.10
2022-12-24T12:40:03.921Z,3.22
2022-12-24T12:42:34.154Z,3.70
2022-12-24T12:45:03.659Z,2.35
2022-12-24T12:47:48.449Z,2.58
2022-12-24T12:50:33.551Z,2.80
2022-12-24T12:52:59.993Z,2.72
2022-12-24T12:56:04.364Z,3.10
2022-12-24T13:01:05.813Z,2.70
2022-12-24T13:03:41.319Z,2.60
2022-12-24T13:06:35.127Z,2.65
2022-12-24T13:09:26.825Z,2.58
2022-12-24T13:12:25.675Z,2.60
2022-12-24T13:15:13.786Z,2.75
2022-12-24T13:18:05.501Z,2.28
2022-12-24T13:20:33.422Z,2.72
2022-12-24T13:23:11.539Z,2.63
2022-12-24T13:25:49.650Z,2.50
2022-12-24T13:28:20.499Z,2.55
2022-12-24T13:30:48.429Z,2.53
2022-12-24T13:33:36.471Z,2.70
2022-12-24T13:36:07.901Z,2.95
2022-12-24T13:38:47.876Z,2.70
2022-12-24T13:41:40.148Z,2.20
2022-12-24T13:44:09.181Z,2.50
2022-12-24T13:47:31.692Z,1.90
2022-12-24T13:50:14.205Z,2.05
2022-12-24T13:52:51.026Z,2.28
2022-12-24T13:55:17.902Z,2.30
2022-12-24T13:57:57.331Z,2.28
2022-12-24T14:00:39.267Z,2.35
2022-12-24T14:03:14.999Z,2.17
2022-12-24T14:05:44.697Z,2.55
2022-12-24T14:08:17.522Z,1.80
2022-12-24T14:10:57.162Z,2.13
2022-12-24T14:13:38.870Z,2.17
2022-12-24T14:16:07.888Z,2.13
2022-12-24T14:18:42.791Z,2.38
2022-12-24T14:21:22.876Z,2.10
2022-12-24T14:24:00.321Z,2.10
2022-12-24T14:26:37.962Z,1.88
2022-12-24T14:29:24.854Z,2.00
2022-12-24T14:31:57.076Z,2.10
2022-12-24T14:34:23.770Z,1.90
2022-12-24T14:36:53.724Z,2.25
2022-12-24T14:39:48.035Z,2.58
2022-12-24T14:42:33.383Z,1.77
2022-12-24T14:45:31.427Z,1.58
2022-12-24T14:48:26.977Z,1.85
2022-12-24T14:51:04.686Z,2.20
2022-12-24T14:53:49.566Z,1.73
2022-12-24T14:56:18.314Z,2.30
2022-12-24T14:58:45.845Z,2.00
2022-12-24T15:01:23.460Z,1.70
2022-12-24T15:04:11.628Z,1.63
2022-12-24T15:06:41.004Z,1.70
2022-12-24T15:09:18.959Z,1.60
2022-12-24T15:11:47.363Z,1.60
2022-12-24T15:14:14.125Z,1.70
2022-12-24T15:16:40.848Z,1.95
2022-12-24T15:19:22.810Z,1.63
2022-12-24T15:21:49.693Z,1.52
2022-12-24T15:24:33.881Z,2.15
2022-12-24T15:27:06.519Z,1.65
2022-12-24T15:29:39.793Z,2.03
2022-12-24T15:32:06.447Z,1.75
2022-12-24T15:34:42.104Z,2.15
2022-12-24T15:37:14.323Z,2.13
2022-12-24T15:39:41.190Z,1.60
2022-12-24T15:42:15.113Z,1.60
2022-12-24T15:45:01.204Z,1.42
2022-12-24T15:47:38.848Z,1.42
2022-12-24T15:50:19.557Z,1.77
2022-12-24T15:52:46.605Z,1.60
2022-12-24T15:55:28.241Z,1.75
2022-12-24T15:57:54.980Z,1.40
2022-12-24T16:00:24.833Z,1.60
2022-12-24T16:02:51.982Z,1.83
2022-12-24T16:05:18.582Z,1.50
2022-12-24T16:08:20.160Z,2.05
2022-12-24T16:10:49.173Z,1.77
2022-12-24T16:13:21.561Z,1.60
2022-12-24T16:16:01.179Z,1.70
2022-12-24T16:18:38.851Z,1.90
2022-12-24T16:21:06.757Z,1.48
2022-12-24T16:23:54.477Z,1.60
2022-12-24T16:26:21.418Z,1.70
2022-12-24T16:28:48.217Z,1.50
2022-12-24T16:31:58.678Z,1.83
2022-12-24T16:34:29.974Z,1.70
2022-12-24T16:36:57.226Z,1.50
2022-12-24T16:39:25.168Z,1.73
2022-12-24T16:42:11.024Z,1.50
2022-12-24T16:44:37.849Z,1.90
2022-12-24T16:47:06.294Z,1.52
2022-12-24T16:49:32.848Z,1.55
2022-12-24T16:51:59.433Z,1.48
2022-12-24T16:54:26.020Z,1.45
2022-12-24T16:56:52.611Z,1.63
2022-12-24T16:59:24.221Z,1.75
2022-12-24T17:01:51.489Z,1.60
2022-12-24T17:04:19.148Z,1.73
2022-12-24T17:06:45.806Z,1.50
2022-12-24T17:09:12.727Z,1.70
2022-12-24T17:11:39.320Z,1.75
2022-12-24T17:14:08.690Z,1.48
2022-12-24T17:16:37.719Z,1.95
2022-12-24T17:19:04.883Z,1.75
2022-12-24T17:21:31.675Z,1.60
2022-12-24T17:23:58.247Z,1.63
2022-12-24T17:26:24.808Z,1.50
2022-12-24T17:28:57.931Z,1.23
2022-12-24T17:31:24.787Z,1.40
2022-12-24T17:33:52.282Z,1.40
2022-12-24T17:36:19.284Z,1.52
2022-12-24T17:38:45.866Z,1.27
2022-12-24T17:41:14.672Z,1.30
2022-12-24T17:43:41.354Z,1.30
2022-12-24T17:46:22.943Z,1.58
2022-12-24T17:48:50.977Z,1.35
2022-12-24T17:51:20.660Z,1.30
2022-12-24T17:53:47.900Z,1.48
2022-12-24T17:56:15.448Z,1.23
2022-12-24T17:58:43.600Z,1.52
2022-12-24T18:01:32.413Z,1.50
2022-12-24T18:04:00.297Z,1.50
2022-12-24T18:06:27.154Z,1.50
2022-12-24T18:08:54.338Z,1.85
2022-12-24T18:11:30.464Z,1.80
2022-12-24T18:13:57.642Z,1.58
2022-12-24T18:16:38.056Z,1.80
2022-12-24T18:19:06.493Z,1.45
2022-12-24T18:21:33.435Z,1.25
2022-12-24T18:24:00.386Z,1.50
2022-12-24T18:26:28.829Z,1.50
2022-12-24T18:28:57.472Z,1.40
2022-12-24T18:31:25.047Z,1.42
2022-12-24T18:33:52.281Z,1.80
2022-12-24T18:36:19.747Z,1.55
2022-12-24T18:38:46.299Z,1.90
2022-12-24T18:41:21.337Z,1.42
2022-12-24T18:43:48.383Z,1.30
2022-12-24T18:46:17.143Z,1.42
2022-12-24T18:48:43.726Z,1.40
2022-12-24T18:51:10.476Z,1.40
2022-12-24T18:53:37.180Z,1.90
2022-12-24T18:56:16.146Z,1.20
2022-12-24T18:58:43.291Z,1.40
2022-12-24T19:01:15.676Z,1.52
2022-12-24T19:03:42.448Z,1.63
2022-12-24T19:06:09.401Z,1.60
2022-12-24T19:11:23.373Z,1.15
2022-12-24T19:13:50.587Z,1.48
2022-12-24T19:16:17.930Z,1.45
2022-12-24T19:18:44.531Z,1.50
2022-12-24T19:21:13.049Z,1.40
2022-12-24T19:23:39.637Z,1.40
2022-12-24T19:26:06.379Z,1.58
2022-12-24T19:28:33.423Z,1.75
2022-12-24T19:31:05.167Z,1.73
2022-12-24T19:33:42.165Z,1.50
2022-12-24T19:36:11.561Z,1.70
2022-12-24T19:38:38.156Z,1.92
2022-12-24T19:41:15.576Z,1.50
2022-12-24T19:43:50.318Z,1.58
2022-12-24T19:46:19.721Z,1.48
2022-12-24T19:48:50.853Z,2.08
2022-12-24T19:51:18.088Z,2.08
2022-12-24T19:53:44.803Z,2.00
2022-12-24T19:56:15.370Z,1.65
2022-12-24T19:58:42.158Z,1.63
2022-12-24T20:01:15.112Z,1.55
2022-12-24T20:03:43.648Z,1.88
2022-12-24T20:06:10.180Z,1.60
2022-12-24T20:08:37.475Z,1.70
2022-12-24T20:11:09.260Z,1.95
2022-12-24T20:13:36.597Z,1.73
2022-12-24T20:16:16.480Z,1.67
2022-12-24T20:18:43.203Z,2.40
2022-12-24T20:21:11.755Z,2.03
2022-12-24T20:23:39.866Z,2.00
2022-12-24T20:26:08.966Z,2.05
2022-12-24T20:28:36.364Z,1.90
2022-12-24T20:31:13.518Z,2.60
2022-12-24T20:33:41.564Z,2.47
2022-12-24T20:36:08.768Z,2.55
2022-12-24T20:38:35.733Z,2.70
2022-12-24T20:41:02.288Z,2.70
2022-12-24T20:43:34.524Z,2.47
2022-12-24T20:46:03.769Z,2.75
2022-12-24T20:48:31.098Z,2.30
2022-12-24T20:50:58.218Z,2.60
2022-12-24T20:53:25.251Z,2.38
2022-12-24T20:55:54.530Z,2.65
2022-12-24T20:58:21.302Z,2.20
2022-12-24T21:00:48.403Z,2.50
2022-12-24T21:03:16.471Z,2.40
2022-12-24T21:05:43.749Z,2.53
2022-12-24T21:08:11.657Z,2.70
2022-12-24T21:10:38.849Z,2.75
2022-12-24T21:13:05.859Z,2.55
2022-12-24T21:15:39.696Z,2.70
2022-12-24T21:18:11.713Z,1.92
2022-12-24T21:20:39.679Z,2.22
2022-12-24T21:23:06.429Z,2.53
2022-12-24T21:25:33.514Z,2.40
2022-12-24T21:28:00.124Z,2.25
2022-12-24T21:30:26.721Z,2.40
2022-12-24T21:32:53.446Z,2.40
2022-12-24T21:35:20.027Z,3.08
2022-12-24T21:37:46.559Z,2.35
2022-12-24T21:40:13.216Z,2.50
2022-12-24T21:42:39.869Z,3.20
2022-12-24T21:45:07.059Z,2.83
2022-12-24T21:47:35.052Z,2.83
2022-12-24T21:50:19.845Z,4.30
2022-12-24T21:52:46.486Z,4.07
2022-12-24T21:55:13.013Z,2.97
2022-12-24T21:57:57.125Z,3.15
2022-12-24T22:00:26.500Z,2.95
2022-12-24T22:02:56.030Z,3.05
2022-12-24T22:05:25.982Z,2.90
2022-12-24T22:08:11.855Z,2.20
2022-12-24T22:10:57.971Z,3.03
2022-12-24T22:13:25.170Z,3.33
2022-12-24T22:15:53.163Z,2.97
2022-12-24T22:18:22.410Z,3.60
2022-12-24T22:20:49.290Z,4.07
2022-12-24T22:23:15.873Z,4.65
2022-12-24T22:25:43.718Z,4.40
2022-12-24T22:28:10.661Z,4.65
2022-12-24T22:30:38.534Z,4.35
2022-12-24T22:33:05.603Z,4.47
2022-12-24T22:35:32.554Z,4.93
2022-12-24T22:38:00.345Z,4.03
2022-12-24T22:40:28.037Z,4.72
2022-12-24T22:42:54.796Z,4.43
2022-12-24T22:45:22.787Z,4.57
2022-12-24T22:47:49.654Z,4.65
2022-12-24T22:50:16.867Z,4.25
2022-12-24T22:52:43.532Z,4.57
2022-12-24T22:55:10.231Z,4.35
2022-12-24T22:57:36.802Z,4.13
2022-12-24T23:00:09.828Z,4.15
2022-12-24T23:02:36.524Z,4.60
2022-12-24T23:05:03.242Z,3.70
2022-12-24T23:07:29.781Z,4.10
2022-12-24T23:09:57.101Z,4.20
2022-12-24T23:12:43.763Z,3.45
2022-12-24T23:15:10.979Z,4.00
2022-12-24T23:17:37.522Z,3.88
2022-12-24T23:20:06.449Z,4.00
2022-12-24T23:22:32.999Z,4.50
2022-12-24T23:24:59.542Z,3.85
2022-12-24T23:27:26.150Z,4.13
2022-12-24T23:29:52.671Z,4.40
2022-12-24T23:32:19.242Z,4.13
2022-12-24T23:34:45.822Z,3.70
2022-12-24T23:37:12.350Z,3.75
2022-12-24T23:39:38.890Z,4.03
2022-12-24T23:42:05.421Z,4.03
2022-12-24T23:44:32.715Z,4.22
2022-12-24T23:46:59.594Z,3.55
2022-12-24T23:49:26.762Z,3.65
2022-12-24T23:51:53.286Z,4.00
2022-12-24T23:54:19.837Z,3.30
2022-12-24T23:56:47.112Z,3.58
2022-12-24T23:59:13.651Z,4.13
